Quitman, Mississippi
Current Conditions -  °F | °C
As of 3:58 PM on Saturday 25 Oct 2014 (Local Time) from KMEI Reporting Station
Clear Clear  
Wind Chill: 27°   Ceiling: Unl
Heat Index: 27°   Visibility: 10mi
Dew Point: 14°   Wind: 7mph
Humidity: 47%   Direction: 350°N
Pressure: 30.05"   Gusts: NA
Location:  32.04°N, 88.73°W
Report Text: KMEI 252058Z 35006KT 10SM CLR 27/14 A3005 RMK AO2 SLP175 T02670144 56019
Loading
Personal Weather Stations






























Interactive Weather Map
Tropical Storm Tracking
New forecast layout! Learn more

10-Day Weather Forecast

Advertisements
Track Severe Weather on mobile